Time;durP1;ratioP1;P1;durP2;ratioP2;P2;SDS_P1;SDS_P2;PMS_P1;PMS_P2;Temp;Humidity;BMP_temperature;BMP_pressure;BME280_temperature;BME280_humidity;BME280_pressure;Samples;Min_cycle;Max_cycle;Signal;HPM_P1;HPM_P2
2023/03/25 00:00:21;;;;;;;9.20;1.20;;;;;;;7.92;100.00;100130.00;4929390;29;20034;-91
2023/03/25 00:02:49;;;;;;;10.05;1.58;;;;;;;7.99;100.00;100143.91;4918733;29;20104;-93
2023/03/25 00:05:16;;;;;;;8.93;0.93;;;;;;;8.01;100.00;100131.13;4927172;29;20038;-93
2023/03/25 00:07:43;;;;;;;10.82;1.23;;;;;;;7.93;100.00;100103.06;4937068;29;20065;-93
2023/03/25 00:10:11;;;;;;;7.20;1.20;;;;;;;8.02;100.00;100132.72;4936377;29;20027;-93
2023/03/25 00:12:37;;;;;;;4.60;1.10;;;;;;;8.02;100.00;100146.91;4936618;29;20111;-93
2023/03/25 00:15:03;;;;;;;6.43;1.20;;;;;;;8.03;100.00;100135.13;4950579;29;20012;-93
2023/03/25 00:17:29;;;;;;;8.10;1.20;;;;;;;8.03;100.00;100129.78;4947541;29;20295;-94
2023/03/25 00:19:55;;;;;;;8.82;1.23;;;;;;;8.01;100.00;100139.13;4937304;29;20023;-94
2023/03/25 00:22:22;;;;;;;4.78;0.80;;;;;;;7.91;100.00;100121.19;4954143;28;20030;-92
2023/03/25 00:24:47;;;;;;;6.47;1.17;;;;;;;7.92;100.00;100136.13;4938527;29;20428;-93
2023/03/25 00:27:16;;;;;;;7.07;1.07;;;;;;;7.83;100.00;100116.34;4918377;29;20288;-93
2023/03/25 00:29:42;;;;;;;7.18;1.00;;;;;;;7.91;100.00;100128.41;4932077;29;20028;-93
2023/03/25 00:32:08;;;;;;;7.18;1.17;;;;;;;7.86;100.00;100121.16;4937299;29;20024;-93
2023/03/25 00:34:34;;;;;;;6.80;1.20;;;;;;;7.76;100.00;100115.75;4936470;29;20031;-92
2023/03/25 00:37:01;;;;;;;5.32;1.30;;;;;;;7.64;100.00;100115.94;4928902;29;20009;-94
2023/03/25 00:39:27;;;;;;;12.77;1.30;;;;;;;7.69;100.00;100119.44;4936412;28;20016;-93
2023/03/25 00:41:56;;;;;;;9.48;1.10;;;;;;;7.69;100.00;100113.31;4942166;28;20047;-93
2023/03/25 00:44:22;;;;;;;9.80;1.10;;;;;;;7.75;100.00;100122.97;4941266;28;20116;-93
2023/03/25 00:46:47;;;;;;;7.33;1.30;;;;;;;7.80;100.00;100114.19;4940767;28;20272;-93
2023/03/25 00:49:12;;;;;;;9.10;1.27;;;;;;;7.83;100.00;100108.34;4925028;29;20047;-92
2023/03/25 00:51:37;;;;;;;9.50;1.30;;;;;;;7.81;100.00;100123.81;4919451;29;20052;-94
2023/03/25 00:54:03;;;;;;;6.90;1.20;;;;;;;7.77;100.00;100128.81;4918195;29;20024;-93
2023/03/25 00:56:30;;;;;;;7.93;1.27;;;;;;;7.76;100.00;100123.75;4936158;29;20019;-94
2023/03/25 00:58:56;;;;;;;4.60;0.80;;;;;;;7.80;100.00;100122.19;4937752;29;20435;-94
2023/03/25 01:01:27;;;;;;;5.43;1.15;;;;;;;7.78;100.00;100117.09;4936941;29;20024;-94
2023/03/25 01:03:58;;;;;;;4.85;0.93;;;;;;;7.82;100.00;100120.06;4925969;29;20024;-94
2023/03/25 01:06:31;;;;;;;5.13;1.05;;;;;;;7.76;100.00;100113.88;4917627;29;20070;-94
2023/03/25 01:08:57;;;;;;;4.47;0.90;;;;;;;7.83;100.00;100114.47;4916655;29;20436;-93
2023/03/25 01:11:26;;;;;;;8.57;1.03;;;;;;;7.81;100.00;100115.81;4917208;29;20540;-94
2023/03/25 01:13:56;;;;;;;5.88;1.20;;;;;;;7.70;100.00;100131.72;4926390;29;20428;-93
2023/03/25 01:16:22;;;;;;;5.50;1.00;;;;;;;7.69;100.00;100119.44;4936744;29;20055;-94
2023/03/25 01:18:48;;;;;;;6.97;1.58;;;;;;;7.69;100.00;100119.44;4918546;29;20096;-93
2023/03/25 01:21:13;;;;;;;4.45;1.00;;;;;;;7.75;100.00;100119.47;4934990;29;20034;-94
2023/03/25 01:23:39;;;;;;;9.20;1.30;;;;;;;7.64;100.00;100108.75;4919398;29;20032;-93
2023/03/25 01:26:05;;;;;;;8.77;1.33;;;;;;;7.73;100.00;100133.88;4919159;29;20039;-94
2023/03/25 01:28:30;;;;;;;4.67;1.10;;;;;;;7.76;100.00;100131.75;4916451;29;20287;-94
2023/03/25 01:31:05;;;;;;;4.75;1.08;;;;;;;7.76;100.00;100129.88;4916863;29;20032;-94
2023/03/25 01:33:31;;;;;;;7.60;1.30;;;;;;;7.76;100.00;100124.56;4922395;29;20027;-94
2023/03/25 01:35:57;;;;;;;6.33;1.43;;;;;;;7.67;100.00;100124.22;4935765;29;21019;-93
2023/03/25 01:38:25;;;;;;;4.38;1.05;;;;;;;7.70;100.00;100136.25;4935438;29;20528;-93
2023/03/25 01:40:51;;;;;;;6.32;1.10;;;;;;;7.66;100.00;100130.63;4951680;28;20020;-94
2023/03/25 01:43:18;;;;;;;6.05;1.10;;;;;;;7.69;100.00;100126.66;4944687;28;20063;-93
2023/03/25 01:45:45;;;;;;;3.58;0.90;;;;;;;7.69;100.00;100131.97;4937374;29;20103;-94
2023/03/25 01:48:16;;;;;;;6.55;1.23;;;;;;;7.69;100.00;100119.44;4954515;28;20019;-93
2023/03/25 01:50:47;;;;;;;5.60;1.25;;;;;;;7.69;100.00;100123.97;4939972;29;20424;-92
2023/03/25 01:53:13;;;;;;;4.75;1.00;;;;;;;7.66;100.00;100119.97;4934775;29;20067;-92
2023/03/25 01:55:39;;;;;;;6.17;1.10;;;;;;;7.58;100.00;100107.09;4925075;29;20059;-94
2023/03/25 01:58:14;;;;;;;4.97;1.10;;;;;;;7.59;100.00;100098.03;4936446;29;20028;-95
2023/03/25 02:00:42;;;;;;;6.00;1.60;;;;;;;7.57;100.00;100113.50;4936177;29;20296;-93
2023/03/25 02:03:10;;;;;;;3.83;1.05;;;;;;;7.56;100.00;100115.38;4938300;29;20046;-93
2023/03/25 02:06:02;;;;;;;5.80;1.23;;;;;;;7.60;100.00;100115.66;4949377;29;20031;-92
2023/03/25 02:08:32;;;;;;;4.35;1.02;;;;;;;7.56;100.00;100098.56;4954653;29;20071;-94
2023/03/25 02:10:58;;;;;;;4.50;1.20;;;;;;;7.60;100.00;100104.97;4953292;29;20077;-94
2023/03/25 02:13:24;;;;;;;5.38;1.10;;;;;;;7.58;100.00;100110.56;4938249;29;20028;-94
2023/03/25 02:16:09;;;;;;;2.80;0.90;;;;;;;7.66;100.00;100109.31;4928609;29;20028;-95
2023/03/25 02:19:01;;;;;;;5.97;1.13;;;;;;;7.63;100.00;100114.31;4921207;29;20036;-95
2023/03/25 02:21:44;;;;;;;5.60;0.93;;;;;;;7.55;100.00;100102.28;4931722;29;20031;-95
2023/03/25 02:24:35;;;;;;;4.40;1.03;;;;;;;7.54;100.00;100095.31;4918414;29;20308;-94
2023/03/25 02:27:40;;;;;;;2.92;0.88;;;;;;;7.56;100.00;100103.88;4916077;29;20546;-94
2023/03/25 02:30:42;;;;;;;4.07;1.00;;;;;;;7.56;100.00;100099.38;4915906;29;20036;-94
2023/03/25 02:33:46;;;;;;;3.97;1.10;;;;;;;7.51;100.00;100083.31;4924284;29;20187;-95
2023/03/25 02:36:51;;;;;;;6.78;1.40;;;;;;;7.58;100.00;100105.22;4935309;29;20031;-95
2023/03/25 02:39:41;;;;;;;4.03;1.00;;;;;;;7.55;100.00;100102.28;4937864;29;20032;-94
2023/03/25 02:42:21;;;;;;;5.53;1.15;;;;;;;7.55;100.00;100099.59;4934399;29;20091;-95
2023/03/25 02:45:24;;;;;;;5.50;0.95;;;;;;;7.50;100.00;100099.56;4935545;29;20039;-95
2023/03/25 02:47:56;;;;;;;8.05;1.15;;;;;;;7.47;100.00;100108.09;4928601;29;20040;-94
2023/03/25 02:50:28;;;;;;;6.27;1.40;;;;;;;7.42;100.00;100098.16;4916587;29;20515;-95
2023/03/25 02:52:58;;;;;;;11.27;1.30;;;;;;;7.36;100.00;100093.88;4922677;29;20150;-95
2023/03/25 02:55:29;;;;;;;5.65;0.93;;;;;;;7.40;100.00;100098.44;4935236;29;20027;-95
2023/03/25 02:57:56;;;;;;;3.20;0.85;;;;;;;7.35;100.00;100100.25;4916825;29;20036;-95
2023/03/25 03:00:25;;;;;;;5.28;1.00;;;;;;;7.18;100.00;100100.38;4918931;29;20445;-95
2023/03/25 03:02:58;;;;;;;10.63;1.50;;;;;;;7.04;100.00;100092.78;4919941;29;20051;-94
2023/03/25 03:05:25;;;;;;;5.40;1.30;;;;;;;7.01;100.00;100095.16;4924949;29;20031;-94
2023/03/25 03:08:32;;;;;;;7.57;1.10;;;;;;;7.03;100.00;100096.50;4939967;28;20083;-95
2023/03/25 03:11:20;;;;;;;7.97;0.90;;;;;;;7.06;100.00;100089.84;4921152;29;20319;-95
2023/03/25 03:13:48;;;;;;;4.93;1.20;;;;;;;7.06;100.00;100090.69;4949170;28;20054;-95
2023/03/25 03:16:25;;;;;;;9.52;1.50;;;;;;;7.02;100.00;100092.22;4951903;29;20046;-94
2023/03/25 03:19:26;;;;;;;13.23;1.50;;;;;;;6.99;100.00;100084.75;4922535;29;20107;-95
2023/03/25 03:22:00;;;;;;;11.18;1.63;;;;;;;6.99;100.00;100087.41;4923666;29;20024;-95
2023/03/25 03:24:33;;;;;;;10.05;1.40;;;;;;;6.90;100.00;100086.25;4926181;29;20472;-93
2023/03/25 03:27:10;;;;;;;14.18;1.58;;;;;;;6.84;100.00;100084.59;4929955;29;20092;-93
2023/03/25 03:29:47;;;;;;;7.90;1.30;;;;;;;6.79;100.00;100080.81;4911900;29;20020;-93
2023/03/25 03:32:19;;;;;;;12.70;1.67;;;;;;;6.78;100.00;100086.41;4931040;29;20308;-93
2023/03/25 03:34:51;;;;;;;7.80;1.45;;;;;;;6.81;100.00;100085.91;4942621;28;20050;-93
2023/03/25 03:37:25;;;;;;;5.80;1.67;;;;;;;6.76;100.00;100075.97;4942342;28;20009;-94
2023/03/25 03:39:54;;;;;;;6.85;1.15;;;;;;;6.79;100.00;100086.13;4941793;29;20008;-94
2023/03/25 03:42:29;;;;;;;11.32;1.65;;;;;;;6.80;100.00;100089.63;4930222;29;20067;-95
2023/03/25 03:45:00;;;;;;;11.07;1.60;;;;;;;6.82;100.00;100087.53;4926431;29;20043;-94
2023/03/25 03:47:35;;;;;;;14.88;1.70;;;;;;;6.81;100.00;100077.91;4920095;29;20103;-94
2023/03/25 03:50:12;;;;;;;7.55;1.13;;;;;;;6.95;100.00;100088.97;4918587;29;20035;-94
2023/03/25 03:52:44;;;;;;;10.00;1.40;;;;;;;7.01;100.00;100085.28;4918422;29;20090;-94
2023/03/25 03:55:20;;;;;;;7.40;1.02;;;;;;;7.06;100.00;100088.00;4924417;29;20047;-93
2023/03/25 03:58:09;;;;;;;8.65;1.20;;;;;;;7.04;100.00;100084.78;4928403;29;20392;-93
2023/03/25 04:00:40;;;;;;;7.75;1.20;;;;;;;7.04;100.00;100087.47;4912064;29;20144;-93
2023/03/25 04:03:14;;;;;;;19.45;1.77;;;;;;;7.03;100.00;100091.19;4901220;29;20040;-93
2023/03/25 04:05:48;;;;;;;9.43;1.10;;;;;;;6.91;100.00;100082.53;4918148;29;20020;-94
2023/03/25 04:08:27;;;;;;;8.20;1.70;;;;;;;6.90;100.00;100097.72;4918440;29;20039;-92
2023/03/25 04:10:57;;;;;;;12.13;1.42;;;;;;;6.96;100.00;100085.25;4918922;29;20024;-93
2023/03/25 04:13:28;;;;;;;8.95;1.20;;;;;;;7.00;100.00;100101.53;4918885;29;20026;-91
2023/03/25 04:15:56;;;;;;;8.43;1.20;;;;;;;7.01;100.00;100100.50;4918354;29;20119;-92
2023/03/25 04:18:22;;;;;;;6.15;1.10;;;;;;;7.02;100.00;100086.91;4918501;29;20491;-93
2023/03/25 04:20:49;;;;;;;10.75;1.35;;;;;;;7.02;100.00;100088.78;4918306;29;20488;-93
2023/03/25 04:23:15;;;;;;;8.95;1.60;;;;;;;6.99;100.00;100090.06;4917603;29;20052;-93
2023/03/25 04:25:48;;;;;;;9.20;1.00;;;;;;;6.87;100.00;100081.44;4918940;29;20032;-93
2023/03/25 04:28:16;;;;;;;11.23;1.30;;;;;;;6.92;100.00;100073.50;4918504;29;20024;-92
2023/03/25 04:30:44;;;;;;;7.15;1.33;;;;;;;6.88;100.00;100077.72;4917536;29;20028;-92
2023/03/25 04:33:10;;;;;;;9.00;1.15;;;;;;;6.97;100.00;100085.00;4949581;28;20062;-92
2023/03/25 04:35:35;;;;;;;9.13;1.10;;;;;;;6.94;100.00;100077.50;4943938;29;20036;-93
2023/03/25 04:38:01;;;;;;;5.00;1.13;;;;;;;6.99;100.00;100087.41;4938405;29;20404;-93
2023/03/25 04:40:26;;;;;;;6.23;1.40;;;;;;;7.05;100.00;100080.25;4948750;28;20028;-93
2023/03/25 04:42:52;;;;;;;6.80;0.70;;;;;;;7.07;100.00;100067.50;4934916;29;20062;-92
2023/03/25 04:45:18;;;;;;;6.75;1.20;;;;;;;7.08;100.00;100093.06;4937063;29;20483;-93
2023/03/25 04:47:46;;;;;;;10.52;1.13;;;;;;;7.06;100.00;100088.00;4918907;29;20036;-93
2023/03/25 04:50:21;;;;;;;5.30;1.00;;;;;;;7.10;100.00;100091.78;4918075;29;20024;-92
2023/03/25 04:52:48;;;;;;;9.77;1.25;;;;;;;7.07;100.00;100092.28;4929263;29;20388;-92
2023/03/25 04:55:18;;;;;;;6.55;1.23;;;;;;;7.07;100.00;100089.63;4938202;29;20039;-92
2023/03/25 04:57:48;;;;;;;7.20;1.33;;;;;;;7.04;100.00;100089.31;4938836;29;20042;-91
2023/03/25 05:00:16;;;;;;;8.35;1.30;;;;;;;7.06;100.00;100095.19;4944888;29;20120;-92
2023/03/25 05:02:54;;;;;;;7.75;1.55;;;;;;;6.99;100.00;100083.94;4944962;29;20036;-92
2023/03/25 05:05:22;;;;;;;8.90;1.30;;;;;;;6.96;100.00;100083.41;4940749;29;20038;-92
2023/03/25 05:07:52;;;;;;;5.53;1.50;;;;;;;7.00;100.00;100081.03;4935021;29;20031;-92
2023/03/25 05:10:20;;;;;;;8.17;1.10;;;;;;;6.99;100.00;100083.94;4917835;29;20268;-92
2023/03/25 05:12:46;;;;;;;8.00;1.10;;;;;;;6.95;100.00;100080.97;4923169;29;20032;-92
2023/03/25 05:15:12;;;;;;;7.47;1.10;;;;;;;6.97;100.00;100082.34;4923646;29;20415;-92
2023/03/25 05:17:39;;;;;;;8.65;1.13;;;;;;;6.87;100.00;100087.53;4923675;29;20467;-92
2023/03/25 05:20:07;;;;;;;9.38;1.23;;;;;;;6.79;100.00;100090.69;4923900;29;20040;-91
2023/03/25 05:22:32;;;;;;;6.43;1.42;;;;;;;6.72;100.00;100093.53;4922729;29;20045;-91
2023/03/25 05:24:58;;;;;;;8.17;1.30;;;;;;;6.68;100.00;100095.09;4923068;29;20496;-91
2023/03/25 05:27:23;;;;;;;11.43;1.17;;;;;;;6.60;100.00;100091.00;4918099;29;20384;-91
2023/03/25 05:29:48;;;;;;;10.87;1.30;;;;;;;6.58;100.00;100087.78;4916100;29;20024;-92
2023/03/25 05:32:16;;;;;;;7.80;1.40;;;;;;;6.59;100.00;100097.38;4920709;29;20020;-92
2023/03/25 05:34:45;;;;;;;6.65;1.30;;;;;;;6.59;100.00;100101.88;4923836;29;20490;-91
2023/03/25 05:37:13;;;;;;;7.97;1.33;;;;;;;6.62;100.00;100090.75;4900317;29;20032;-91
2023/03/25 05:39:38;;;;;;;9.10;1.30;;;;;;;6.54;100.00;100077.91;4915736;29;20028;-92
2023/03/25 05:42:03;;;;;;;6.00;1.00;;;;;;;6.63;100.00;100093.19;4922331;29;20028;-92
2023/03/25 05:44:29;;;;;;;8.27;1.07;;;;;;;6.63;100.00;100082.53;4934530;29;20039;-92
2023/03/25 05:46:54;;;;;;;5.53;1.00;;;;;;;6.72;100.00;100100.72;4935356;29;20039;-92
2023/03/25 05:49:20;;;;;;;9.85;1.25;;;;;;;6.76;100.00;100097.28;4935231;29;20031;-92
2023/03/25 05:51:48;;;;;;;9.10;1.55;;;;;;;6.78;100.00;100100.50;4935499;29;20065;-92
2023/03/25 05:54:14;;;;;;;7.23;1.00;;;;;;;6.73;100.00;100095.16;4938058;29;20223;-92
2023/03/25 05:56:41;;;;;;;8.88;1.30;;;;;;;6.86;100.00;100103.78;4938204;29;20056;-91
2023/03/25 05:59:07;;;;;;;11.05;1.40;;;;;;;6.91;100.00;100098.53;4953663;28;20054;-93
2023/03/25 06:01:32;;;;;;;6.72;1.17;;;;;;;6.89;100.00;100108.63;4945499;29;20055;-92
2023/03/25 06:04:00;;;;;;;14.37;1.43;;;;;;;6.96;100.00;100122.53;4923003;29;20056;-93
2023/03/25 06:06:26;;;;;;;8.18;1.40;;;;;;;6.95;100.00;100120.91;4934703;29;20024;-93
2023/03/25 06:08:51;;;;;;;7.93;1.40;;;;;;;6.89;100.00;100129.94;4930005;29;20016;-93
2023/03/25 06:11:18;;;;;;;11.70;1.13;;;;;;;6.85;100.00;100131.47;4925996;29;20039;-92
2023/03/25 06:13:51;;;;;;;9.13;1.00;;;;;;;6.80;100.00;100145.53;4923092;29;20032;-92
2023/03/25 06:16:20;;;;;;;8.95;1.25;;;;;;;6.77;100.00;100133.50;4929306;29;20020;-93
2023/03/25 06:18:50;;;;;;;12.00;1.67;;;;;;;6.75;100.00;100142.81;4924747;29;20040;-91
2023/03/25 06:21:19;;;;;;;10.15;1.50;;;;;;;6.79;100.00;100136.75;4923409;29;20031;-92
2023/03/25 06:23:47;;;;;;;4.60;1.00;;;;;;;6.77;100.00;100138.06;4933831;29;20043;-89
2023/03/25 06:26:12;;;;;;;10.48;1.10;;;;;;;6.66;100.00;100121.16;4939248;29;20128;-93
2023/03/25 06:28:37;;;;;;;8.95;1.67;;;;;;;6.75;100.00;100130.31;4950371;28;20035;-93
2023/03/25 06:31:07;;;;;;;9.27;1.37;;;;;;;6.78;100.00;100121.81;4937647;28;20050;-94
2023/03/25 06:33:33;;;;;;;7.15;1.13;;;;;;;6.90;100.00;100136.88;4922544;29;20062;-91
2023/03/25 06:35:58;;;;;;;9.70;1.50;;;;;;;6.84;100.00;100119.22;4922480;29;20024;-91
2023/03/25 06:38:25;;;;;;;12.27;1.20;;;;;;;6.99;100.00;100138.00;4939203;29;20425;-90
2023/03/25 06:40:50;;;;;;;10.40;1.50;;;;;;;7.06;100.00;100125.31;4934000;29;20051;-95
2023/03/25 06:43:15;;;;;;;11.80;1.50;;;;;;;7.02;100.00;100123.41;4933879;29;20071;-95
2023/03/25 06:45:41;;;;;;;13.00;1.42;;;;;;;7.10;100.00;100149.59;4940522;29;20514;-95
2023/03/25 06:48:07;;;;;;;11.27;1.63;;;;;;;7.13;100.00;100149.09;4940436;29;20059;-95
2023/03/25 06:50:33;;;;;;;7.85;1.33;;;;;;;7.35;100.00;100154.34;4944404;29;20114;-94
2023/03/25 06:52:58;;;;;;;11.00;1.50;;;;;;;7.65;100.00;100158.38;4928144;29;20063;-94
2023/03/25 06:55:25;;;;;;;7.53;1.58;;;;;;;7.82;100.00;100160.88;4922386;29;20024;-94
2023/03/25 06:57:54;;;;;;;13.43;2.17;;;;;;;7.85;100.00;100147.03;4925448;29;20047;-93
2023/03/25 07:00:22;;;;;;;11.40;1.33;;;;;;;7.87;100.00;100131.59;4921957;29;20272;-95
2023/03/25 07:02:48;;;;;;;14.10;2.10;;;;;;;8.00;100.00;100170.34;4904745;29;20107;-94
2023/03/25 07:05:14;;;;;;;10.32;1.77;;;;;;;8.01;100.00;100157.81;4922580;29;20055;-96
2023/03/25 07:07:39;;;;;;;13.17;1.67;;;;;;;7.99;100.00;100160.75;4937267;29;20055;-96
2023/03/25 07:10:08;;;;;;;10.35;1.33;;;;;;;8.11;100.00;100141.06;4940892;29;20064;-96
2023/03/25 07:12:34;;;;;;;13.33;1.80;;;;;;;8.34;100.00;100155.84;4926057;29;20054;-89
2023/03/25 07:14:59;;;;;;;12.75;1.70;;;;;;;8.30;100.00;100155.59;4926910;29;20032;-88
2023/03/25 07:17:25;;;;;;;10.93;1.40;;;;;;;8.26;100.00;100153.69;4918854;29;20031;-89
2023/03/25 07:19:51;;;;;;;9.90;1.67;;;;;;;8.15;100.00;100147.50;4928761;29;20106;-93
2023/03/25 07:22:17;;;;;;;8.88;1.70;;;;;;;8.18;100.00;100141.66;4937642;29;20428;-93
2023/03/25 07:24:43;;;;;;;13.98;2.13;;;;;;;8.33;100.00;100160.41;4927273;29;20032;-96
2023/03/25 07:27:14;;;;;;;10.77;1.67;;;;;;;8.63;100.00;100155.50;4959716;28;20031;-95
2023/03/25 07:29:40;;;;;;;12.03;1.87;;;;;;;8.65;100.00;100148.03;4914869;29;20680;-95
2023/03/25 07:32:08;;;;;;;14.03;2.07;;;;;;;8.70;100.00;100169.41;4957587;29;20311;-95
2023/03/25 07:34:33;;;;;;;12.00;1.60;;;;;;;8.79;100.00;100157.16;4942856;29;20036;-94
2023/03/25 07:36:58;;;;;;;11.80;1.33;;;;;;;8.83;100.00;100160.09;4923640;29;20503;-94
2023/03/25 07:39:25;;;;;;;16.92;1.80;;;;;;;8.81;100.00;100172.91;4933046;29;20555;-96
2023/03/25 07:41:51;;;;;;;14.47;1.70;;;;;;;8.70;100.00;100166.72;4936644;29;20067;-94
2023/03/25 07:44:19;;;;;;;17.08;2.30;;;;;;;8.59;100.00;100181.91;4920553;29;20444;-95
2023/03/25 07:46:45;;;;;;;15.48;2.03;;;;;;;8.43;100.00;100174.84;4918225;29;20024;-94
2023/03/25 07:49:11;;;;;;;14.77;1.98;;;;;;;8.30;100.00;100170.81;4929341;29;20148;-94
2023/03/25 07:51:36;;;;;;;18.63;1.73;;;;;;;8.19;100.00;100169.94;4925427;29;20059;-94
2023/03/25 07:54:02;;;;;;;13.15;1.88;;;;;;;8.07;100.00;100178.13;4934393;29;20028;-93
2023/03/25 07:56:27;;;;;;;7.77;1.37;;;;;;;8.02;100.00;100173.56;4922128;29;20036;-93
2023/03/25 07:58:53;;;;;;;12.32;1.42;;;;;;;8.10;100.00;100177.63;4929441;29;20119;-93
2023/03/25 08:01:19;;;;;;;16.63;1.73;;;;;;;8.19;100.00;100192.09;4931622;29;20024;-93
2023/03/25 08:03:44;;;;;;;16.65;2.13;;;;;;;8.28;100.00;100183.59;4921843;29;20075;-93
2023/03/25 08:06:09;;;;;;;12.07;1.30;;;;;;;8.43;100.00;100180.19;4921310;29;20028;-94
2023/03/25 08:08:35;;;;;;;12.60;1.77;;;;;;;8.69;100.00;100177.69;4919844;29;20055;-94
2023/03/25 08:11:00;;;;;;;11.70;1.57;;;;;;;8.97;100.00;100189.00;4920308;29;20024;-94
2023/03/25 08:13:26;;;;;;;16.80;2.13;;;;;;;9.14;100.00;100162.84;4920314;29;20028;-94
2023/03/25 08:15:54;;;;;;;9.20;1.50;;;;;;;9.67;100.00;100218.03;4920889;29;20028;-94
2023/03/25 08:18:21;;;;;;;14.70;1.88;;;;;;;9.91;100.00;100212.13;4919044;29;20428;-94
2023/03/25 08:20:49;;;;;;;12.18;1.60;;;;;;;10.02;100.00;100219.13;4918218;29;20035;-93
2023/03/25 08:23:18;;;;;;;14.53;1.80;;;;;;;10.06;100.00;100214.81;4919601;29;20107;-94
2023/03/25 08:25:44;;;;;;;12.93;1.80;;;;;;;10.10;100.00;100218.56;4926447;29;20292;-94
2023/03/25 08:28:09;;;;;;;10.95;1.60;;;;;;;10.10;100.00;100223.13;4941890;29;20023;-93
2023/03/25 08:30:37;;;;;;;12.38;2.08;;;;;;;9.82;100.00;100219.91;4941562;29;20038;-93
2023/03/25 08:33:03;;;;;;;6.87;1.30;;;;;;;9.48;100.00;100217.72;4926478;29;20392;-93
2023/03/25 08:35:29;;;;;;;14.43;2.10;;;;;;;9.20;100.00;100225.97;4925222;29;20087;-93
2023/03/25 08:37:54;;;;;;;14.13;2.03;;;;;;;8.83;100.00;100224.22;4944205;29;20020;-92
2023/03/25 08:40:20;;;;;;;18.30;2.53;;;;;;;8.55;100.00;100228.91;4930668;29;20280;-94
2023/03/25 08:42:45;;;;;;;19.63;2.13;;;;;;;8.39;100.00;100227.19;4938266;29;20086;-93
2023/03/25 08:45:12;;;;;;;11.60;2.07;;;;;;;8.31;100.00;100221.25;4877330;29;1125303;-93
2023/03/25 08:47:38;;;;;;;17.50;2.40;;;;;;;8.21;100.00;100228.38;4941609;29;20028;-94
2023/03/25 08:50:04;;;;;;;15.20;2.22;;;;;;;8.31;100.00;100226.59;4926696;29;20024;-94
2023/03/25 08:52:30;;;;;;;15.90;2.20;;;;;;;8.28;100.00;100215.63;4943748;28;20076;-94
2023/03/25 08:54:55;;;;;;;10.90;1.63;;;;;;;8.53;100.00;100222.19;4943022;29;20355;-95
2023/03/25 08:57:22;;;;;;;18.30;2.10;;;;;;;8.59;100.00;100215.84;4941554;29;20032;-93
2023/03/25 08:59:49;;;;;;;16.00;2.08;;;;;;;8.62;100.00;100226.00;4920645;29;20097;-93
2023/03/25 09:02:14;;;;;;;17.00;2.05;;;;;;;8.71;100.00;100223.66;4929861;29;20078;-95
2023/03/25 09:04:40;;;;;;;14.20;2.13;;;;;;;8.87;100.00;100217.31;4929801;29;20087;-95
2023/03/25 09:07:09;;;;;;;20.42;2.30;;;;;;;9.02;100.00;100221.09;4926777;29;20023;-94
2023/03/25 09:09:41;;;;;;;20.77;2.50;;;;;;;8.85;100.00;100219.44;4935169;29;20035;-94
2023/03/25 09:12:07;;;;;;;16.60;2.27;;;;;;;8.82;100.00;100225.28;4943113;29;20298;-95
2023/03/25 09:14:32;;;;;;;17.55;2.22;;;;;;;8.90;100.00;100221.31;4954349;29;20031;-93
2023/03/25 09:16:58;;;;;;;18.73;2.25;;;;;;;8.88;100.00;100210.06;4961466;28;20091;-93
2023/03/25 09:19:25;;;;;;;14.70;2.37;;;;;;;8.83;100.00;100200.19;4960910;28;20043;-94
2023/03/25 09:21:50;;;;;;;11.48;2.30;;;;;;;9.09;100.00;100219.78;4948069;28;20024;-94
2023/03/25 09:24:16;;;;;;;17.23;2.50;;;;;;;9.04;100.00;100197.59;4940753;28;20101;-95
2023/03/25 09:26:41;;;;;;;14.00;2.57;;;;;;;9.02;100.00;100213.06;4934931;29;20496;-94
2023/03/25 09:29:07;;;;;;;9.10;1.87;;;;;;;9.05;100.00;100208.00;4935870;29;20028;-94
2023/03/25 09:31:32;;;;;;;16.00;2.00;;;;;;;9.18;100.00;100208.59;4946560;29;20039;-94
2023/03/25 09:33:57;;;;;;;14.80;1.93;;;;;;;9.36;100.00;100210.78;4918430;29;20318;-93
2023/03/25 09:36:23;;;;;;;13.47;2.30;;;;;;;9.69;100.00;100223.91;4932021;29;20020;-93
2023/03/25 09:38:48;;;;;;;16.37;2.30;;;;;;;10.13;100.00;100225.25;4931424;29;20036;-96
2023/03/25 09:41:44;;;;;;;16.33;2.33;;;;;;;10.62;100.00;100231.88;4933652;29;20056;-93
2023/03/25 09:44:20;;;;;;;15.60;2.92;;;;;;;10.89;100.00;100236.88;4929428;29;20055;-93
2023/03/25 09:46:47;;;;;;;12.07;2.08;;;;;;;11.08;100.00;100235.47;4928505;29;20020;-94
2023/03/25 09:49:20;;;;;;;16.25;2.45;;;;;;;11.16;100.00;100230.34;4944219;29;20024;-94
2023/03/25 09:51:47;;;;;;;17.13;2.47;;;;;;;11.21;100.00;100233.00;4945078;29;20032;-94
2023/03/25 09:54:26;;;;;;;19.33;2.42;;;;;;;11.24;100.00;100247.72;4932985;29;20028;-95
2023/03/25 09:56:53;;;;;;;14.60;2.23;;;;;;;11.21;99.09;100242.91;4935965;29;20551;-94
2023/03/25 09:59:22;;;;;;;14.47;2.57;;;;;;;11.43;97.80;100257.81;4938685;29;20378;-95
2023/03/25 10:02:15;;;;;;;12.25;2.00;;;;;;;11.66;97.16;100254.47;5000316;23;20124;-96
2023/03/25 10:05:01;;;;;;;13.65;2.50;;;;;;;11.40;95.04;100237.72;4916812;29;20024;-96
2023/03/25 10:08:05;;;;;;;14.07;2.50;;;;;;;11.10;97.58;100239.47;4922780;29;20033;-96
2023/03/25 10:10:47;;;;;;;15.45;2.60;;;;;;;11.42;98.48;100248.16;4897407;29;20029;-96
2023/03/25 10:13:37;;;;;;;18.17;2.63;;;;;;;11.57;95.98;100240.00;4912755;29;20047;-96
2023/03/25 10:16:27;;;;;;;16.45;2.55;;;;;;;11.86;99.10;100238.47;4914545;29;20048;-95
2023/03/25 10:19:02;;;;;;;17.13;2.53;;;;;;;12.20;94.74;100243.03;4919213;29;20033;-95
2023/03/25 10:21:33;;;;;;;14.77;2.38;;;;;;;12.38;90.93;100246.91;4914625;29;20036;-94
2023/03/25 10:24:12;;;;;;;22.10;3.10;;;;;;;12.52;89.09;100241.66;4905085;29;20060;-94
2023/03/25 10:27:10;;;;;;;15.70;3.03;;;;;;;12.69;88.68;100243.91;4906429;29;20037;-95
2023/03/25 10:29:44;;;;;;;12.68;2.55;;;;;;;12.68;85.24;100245.81;4905184;29;20040;-95
2023/03/25 10:32:24;;;;;;;14.93;2.75;;;;;;;12.77;87.36;100237.91;4898118;29;20047;-95
2023/03/25 10:34:52;;;;;;;17.35;3.33;;;;;;;12.75;87.63;100239.25;4902478;29;20084;-95
2023/03/25 10:37:28;;;;;;;19.43;2.93;;;;;;;12.72;91.26;100240.66;4905561;29;20033;-93
2023/03/25 10:39:59;;;;;;;21.50;3.13;;;;;;;12.64;87.16;100242.06;4907479;29;20075;-95
2023/03/25 10:42:38;;;;;;;20.90;2.42;;;;;;;12.35;85.95;100247.47;4907921;29;20142;-95
2023/03/25 10:45:12;;;;;;;13.40;2.67;;;;;;;12.24;85.02;100230.66;4908016;29;20065;-94
2023/03/25 10:47:40;;;;;;;10.32;2.53;;;;;;;12.38;86.02;100244.22;4899680;29;20025;-95
2023/03/25 10:50:12;;;;;;;18.13;3.10;;;;;;;12.38;81.14;100252.28;4906502;29;20039;-94
2023/03/25 10:52:38;;;;;;;16.27;2.70;;;;;;;12.34;81.80;100252.03;4905338;29;20029;-95
2023/03/25 10:55:22;;;;;;;17.37;2.63;;;;;;;12.31;78.40;100241.06;4915583;29;20029;-95
2023/03/25 10:57:49;;;;;;;11.98;2.13;;;;;;;12.46;81.15;100246.28;4909925;29;20033;-95
2023/03/25 11:00:19;;;;;;;14.17;2.30;;;;;;;12.83;78.53;100241.31;4901211;29;20029;-93
2023/03/25 11:02:46;;;;;;;13.23;2.90;;;;;;;13.10;74.13;100253.34;4918902;29;20311;-94
2023/03/25 11:05:17;;;;;;;12.50;2.00;;;;;;;13.25;75.55;100249.66;4920456;29;20073;-94
2023/03/25 11:07:57;;;;;;;13.75;1.88;;;;;;;13.54;71.82;100262.22;4914587;29;20044;-94
2023/03/25 11:10:25;;;;;;;11.48;2.17;;;;;;;13.51;68.72;100270.88;4909905;29;20057;-94
2023/03/25 11:12:52;;;;;;;10.43;2.05;;;;;;;13.51;67.91;100246.66;4912301;29;20087;-95
2023/03/25 11:15:22;;;;;;;11.60;2.00;;;;;;;13.50;69.58;100270.06;4912987;29;20576;-94
2023/03/25 11:17:55;;;;;;;12.27;2.00;;;;;;;13.37;68.06;100290.41;4914743;29;20300;-95
2023/03/25 11:20:26;;;;;;;10.90;2.00;;;;;;;13.04;66.90;100260.69;4918003;29;20017;-95
2023/03/25 11:22:59;;;;;;;9.13;1.63;;;;;;;13.20;67.44;100271.25;4913071;29;20056;-93
2023/03/25 11:25:35;;;;;;;10.63;1.75;;;;;;;13.13;64.24;100275.13;4912809;29;20024;-94
2023/03/25 11:28:08;;;;;;;8.70;1.50;;;;;;;13.08;63.04;100275.16;4918558;29;20029;-95
2023/03/25 11:30:33;;;;;;;11.07;1.75;;;;;;;13.16;64.34;100271.03;4915088;29;20029;-95
2023/03/25 11:35:42;;;;;;;7.68;1.50;;;;;;;13.66;64.95;100248.31;4956925;29;20052;-94
2023/03/25 11:38:20;;;;;;;6.95;1.52;;;;;;;13.61;63.60;100238.44;4951651;29;20024;-95